sensor_id;sensor_type;location;lat;lon;timestamp;P1;durP1;ratioP1;P2;durP2;ratioP2
19341;SDS011;9807;48.258;12.690;2023-05-07T00:00:45;2.03;;;1.93;;
19341;SDS011;9807;48.258;12.690;2023-05-07T00:03:11;2.37;;;1.80;;
19341;SDS011;9807;48.258;12.690;2023-05-07T00:05:38;1.87;;;1.77;;
19341;SDS011;9807;48.258;12.690;2023-05-07T00:08:04;3.67;;;2.50;;
19341;SDS011;9807;48.258;12.690;2023-05-07T00:10:30;2.40;;;2.00;;
19341;SDS011;9807;48.258;12.690;2023-05-07T00:12:56;2.80;;;2.13;;
19341;SDS011;9807;48.258;12.690;2023-05-07T00:15:22;3.30;;;2.20;;
19341;SDS011;9807;48.258;12.690;2023-05-07T00:17:48;3.10;;;1.97;;
19341;SDS011;9807;48.258;12.690;2023-05-07T00:20:13;4.03;;;2.17;;
19341;SDS011;9807;48.258;12.690;2023-05-07T00:22:39;3.43;;;2.03;;
19341;SDS011;9807;48.258;12.690;2023-05-07T00:25:05;2.53;;;2.07;;
19341;SDS011;9807;48.258;12.690;2023-05-07T00:27:31;2.70;;;2.20;;
19341;SDS011;9807;48.258;12.690;2023-05-07T00:29:57;3.70;;;2.20;;
19341;SDS011;9807;48.258;12.690;2023-05-07T00:32:26;2.57;;;2.00;;
19341;SDS011;9807;48.258;12.690;2023-05-07T00:34:52;1.87;;;1.70;;
19341;SDS011;9807;48.258;12.690;2023-05-07T00:37:17;3.07;;;1.97;;
19341;SDS011;9807;48.258;12.690;2023-05-07T00:39:43;4.67;;;2.00;;
19341;SDS011;9807;48.258;12.690;2023-05-07T00:42:09;2.27;;;2.07;;
19341;SDS011;9807;48.258;12.690;2023-05-07T00:44:35;2.33;;;1.97;;
19341;SDS011;9807;48.258;12.690;2023-05-07T00:47:01;2.93;;;2.30;;
19341;SDS011;9807;48.258;12.690;2023-05-07T00:49:38;2.10;;;1.90;;
19341;SDS011;9807;48.258;12.690;2023-05-07T00:52:06;3.87;;;2.10;;
19341;SDS011;9807;48.258;12.690;2023-05-07T00:54:34;2.67;;;1.90;;
19341;SDS011;9807;48.258;12.690;2023-05-07T00:57:00;2.60;;;2.20;;
19341;SDS011;9807;48.258;12.690;2023-05-07T00:59:27;4.13;;;2.27;;
19341;SDS011;9807;48.258;12.690;2023-05-07T01:01:53;3.53;;;2.27;;
19341;SDS011;9807;48.258;12.690;2023-05-07T01:04:19;5.83;;;3.10;;
19341;SDS011;9807;48.258;12.690;2023-05-07T01:06:45;2.30;;;2.10;;
19341;SDS011;9807;48.258;12.690;2023-05-07T01:09:12;3.27;;;2.37;;
19341;SDS011;9807;48.258;12.690;2023-05-07T01:11:38;2.50;;;2.00;;
19341;SDS011;9807;48.258;12.690;2023-05-07T01:14:05;5.20;;;2.20;;
19341;SDS011;9807;48.258;12.690;2023-05-07T01:16:32;2.50;;;2.20;;
19341;SDS011;9807;48.258;12.690;2023-05-07T01:19:01;3.23;;;2.43;;
19341;SDS011;9807;48.258;12.690;2023-05-07T01:21:26;2.20;;;2.00;;
19341;SDS011;9807;48.258;12.690;2023-05-07T01:23:57;2.77;;;2.10;;
19341;SDS011;9807;48.258;12.690;2023-05-07T01:26:24;2.47;;;1.87;;
19341;SDS011;9807;48.258;12.690;2023-05-07T01:28:53;2.17;;;1.97;;
19341;SDS011;9807;48.258;12.690;2023-05-07T01:31:18;1.90;;;1.80;;
19341;SDS011;9807;48.258;12.690;2023-05-07T01:33:44;2.27;;;2.00;;
19341;SDS011;9807;48.258;12.690;2023-05-07T01:36:13;2.07;;;1.87;;
19341;SDS011;9807;48.258;12.690;2023-05-07T01:38:40;2.87;;;2.40;;
19341;SDS011;9807;48.258;12.690;2023-05-07T01:41:07;3.03;;;2.77;;
19341;SDS011;9807;48.258;12.690;2023-05-07T01:43:33;3.90;;;2.37;;
19341;SDS011;9807;48.258;12.690;2023-05-07T01:45:59;2.90;;;1.93;;
19341;SDS011;9807;48.258;12.690;2023-05-07T01:48:26;2.10;;;1.90;;
19341;SDS011;9807;48.258;12.690;2023-05-07T01:50:52;2.20;;;2.00;;
19341;SDS011;9807;48.258;12.690;2023-05-07T01:53:18;2.57;;;2.30;;
19341;SDS011;9807;48.258;12.690;2023-05-07T01:55:44;2.87;;;2.00;;
19341;SDS011;9807;48.258;12.690;2023-05-07T01:58:10;4.23;;;2.37;;
19341;SDS011;9807;48.258;12.690;2023-05-07T02:00:36;2.40;;;2.20;;
19341;SDS011;9807;48.258;12.690;2023-05-07T02:03:01;2.73;;;2.37;;
19341;SDS011;9807;48.258;12.690;2023-05-07T02:05:27;2.20;;;2.00;;
19341;SDS011;9807;48.258;12.690;2023-05-07T02:07:53;3.40;;;2.20;;
19341;SDS011;9807;48.258;12.690;2023-05-07T02:10:18;3.80;;;2.00;;
19341;SDS011;9807;48.258;12.690;2023-05-07T02:12:44;2.63;;;2.20;;
19341;SDS011;9807;48.258;12.690;2023-05-07T02:15:10;2.03;;;1.80;;
19341;SDS011;9807;48.258;12.690;2023-05-07T02:17:38;1.97;;;1.83;;
19341;SDS011;9807;48.258;12.690;2023-05-07T02:20:22;2.10;;;1.90;;
19341;SDS011;9807;48.258;12.690;2023-05-07T02:22:48;3.53;;;2.30;;
19341;SDS011;9807;48.258;12.690;2023-05-07T02:25:13;2.43;;;1.90;;
19341;SDS011;9807;48.258;12.690;2023-05-07T02:27:39;4.37;;;2.10;;
19341;SDS011;9807;48.258;12.690;2023-05-07T02:30:05;2.50;;;1.90;;
19341;SDS011;9807;48.258;12.690;2023-05-07T02:32:31;2.43;;;1.90;;
19341;SDS011;9807;48.258;12.690;2023-05-07T02:34:57;1.80;;;1.70;;
19341;SDS011;9807;48.258;12.690;2023-05-07T02:37:22;1.87;;;1.77;;
19341;SDS011;9807;48.258;12.690;2023-05-07T02:39:48;3.13;;;2.00;;
19341;SDS011;9807;48.258;12.690;2023-05-07T02:42:14;3.80;;;2.10;;
19341;SDS011;9807;48.258;12.690;2023-05-07T02:44:39;2.20;;;2.00;;
19341;SDS011;9807;48.258;12.690;2023-05-07T02:47:05;2.20;;;2.00;;
19341;SDS011;9807;48.258;12.690;2023-05-07T02:49:33;4.43;;;2.27;;
19341;SDS011;9807;48.258;12.690;2023-05-07T02:51:59;2.60;;;2.40;;
19341;SDS011;9807;48.258;12.690;2023-05-07T02:54:25;5.17;;;2.60;;
19341;SDS011;9807;48.258;12.690;2023-05-07T02:56:50;2.80;;;2.40;;
19341;SDS011;9807;48.258;12.690;2023-05-07T02:59:19;3.63;;;2.10;;
19341;SDS011;9807;48.258;12.690;2023-05-07T03:01:45;2.70;;;2.23;;
19341;SDS011;9807;48.258;12.690;2023-05-07T03:04:10;3.40;;;2.20;;
19341;SDS011;9807;48.258;12.690;2023-05-07T03:06:36;3.03;;;2.70;;
19341;SDS011;9807;48.258;12.690;2023-05-07T03:09:02;2.43;;;2.23;;
19341;SDS011;9807;48.258;12.690;2023-05-07T03:11:28;3.53;;;2.60;;
19341;SDS011;9807;48.258;12.690;2023-05-07T03:13:53;2.60;;;2.27;;
19341;SDS011;9807;48.258;12.690;2023-05-07T03:16:22;3.03;;;2.60;;
19341;SDS011;9807;48.258;12.690;2023-05-07T03:18:48;2.13;;;1.93;;
19341;SDS011;9807;48.258;12.690;2023-05-07T03:21:13;2.07;;;1.87;;
19341;SDS011;9807;48.258;12.690;2023-05-07T03:23:39;2.60;;;2.33;;
19341;SDS011;9807;48.258;12.690;2023-05-07T03:26:05;2.40;;;2.20;;
19341;SDS011;9807;48.258;12.690;2023-05-07T03:28:30;2.33;;;2.13;;
19341;SDS011;9807;48.258;12.690;2023-05-07T03:30:56;3.80;;;2.20;;
19341;SDS011;9807;48.258;12.690;2023-05-07T03:33:22;2.67;;;2.30;;
19341;SDS011;9807;48.258;12.690;2023-05-07T03:35:48;5.43;;;2.33;;
19341;SDS011;9807;48.258;12.690;2023-05-07T03:38:14;3.83;;;2.00;;
19341;SDS011;9807;48.258;12.690;2023-05-07T03:40:39;2.40;;;2.20;;
19341;SDS011;9807;48.258;12.690;2023-05-07T03:43:08;2.43;;;2.20;;
19341;SDS011;9807;48.258;12.690;2023-05-07T03:45:34;2.90;;;2.27;;
19341;SDS011;9807;48.258;12.690;2023-05-07T03:48:00;2.13;;;1.93;;
19341;SDS011;9807;48.258;12.690;2023-05-07T03:50:26;2.60;;;2.40;;
19341;SDS011;9807;48.258;12.690;2023-05-07T03:52:51;3.03;;;2.33;;
19341;SDS011;9807;48.258;12.690;2023-05-07T03:55:17;2.60;;;2.40;;
19341;SDS011;9807;48.258;12.690;2023-05-07T03:57:46;2.47;;;2.00;;
19341;SDS011;9807;48.258;12.690;2023-05-07T04:00:15;2.10;;;1.90;;
19341;SDS011;9807;48.258;12.690;2023-05-07T04:02:41;3.53;;;2.13;;
19341;SDS011;9807;48.258;12.690;2023-05-07T04:05:07;2.20;;;2.00;;
19341;SDS011;9807;48.258;12.690;2023-05-07T04:07:33;3.67;;;2.00;;
19341;SDS011;9807;48.258;12.690;2023-05-07T04:10:01;2.23;;;1.83;;
19341;SDS011;9807;48.258;12.690;2023-05-07T04:12:27;2.33;;;2.13;;
19341;SDS011;9807;48.258;12.690;2023-05-07T04:14:53;3.47;;;1.97;;
19341;SDS011;9807;48.258;12.690;2023-05-07T04:17:18;2.50;;;2.30;;
19341;SDS011;9807;48.258;12.690;2023-05-07T04:19:44;3.33;;;2.17;;
19341;SDS011;9807;48.258;12.690;2023-05-07T04:22:11;2.27;;;2.07;;
19341;SDS011;9807;48.258;12.690;2023-05-07T04:24:37;2.40;;;2.20;;
19341;SDS011;9807;48.258;12.690;2023-05-07T04:27:02;3.17;;;1.93;;
19341;SDS011;9807;48.258;12.690;2023-05-07T04:29:31;2.20;;;2.00;;
19341;SDS011;9807;48.258;12.690;2023-05-07T04:31:57;2.17;;;1.97;;
19341;SDS011;9807;48.258;12.690;2023-05-07T04:34:23;2.60;;;2.10;;
19341;SDS011;9807;48.258;12.690;2023-05-07T04:36:49;2.60;;;2.20;;
19341;SDS011;9807;48.258;12.690;2023-05-07T04:39:15;2.70;;;2.23;;
19341;SDS011;9807;48.258;12.690;2023-05-07T04:41:41;2.30;;;2.10;;
19341;SDS011;9807;48.258;12.690;2023-05-07T04:44:06;2.30;;;2.10;;
19341;SDS011;9807;48.258;12.690;2023-05-07T04:46:34;2.40;;;2.20;;
19341;SDS011;9807;48.258;12.690;2023-05-07T04:49:00;2.63;;;2.40;;
19341;SDS011;9807;48.258;12.690;2023-05-07T04:51:25;2.20;;;2.00;;
19341;SDS011;9807;48.258;12.690;2023-05-07T04:53:51;2.40;;;2.20;;
19341;SDS011;9807;48.258;12.690;2023-05-07T04:56:17;3.73;;;2.30;;
19341;SDS011;9807;48.258;12.690;2023-05-07T04:58:42;2.50;;;2.30;;
19341;SDS011;9807;48.258;12.690;2023-05-07T05:01:08;3.10;;;2.23;;
19341;SDS011;9807;48.258;12.690;2023-05-07T05:03:34;4.30;;;2.10;;
19341;SDS011;9807;48.258;12.690;2023-05-07T05:06:00;3.07;;;2.77;;
19341;SDS011;9807;48.258;12.690;2023-05-07T05:08:25;5.53;;;3.40;;
19341;SDS011;9807;48.258;12.690;2023-05-07T05:10:51;3.90;;;3.50;;
19341;SDS011;9807;48.258;12.690;2023-05-07T05:13:17;3.73;;;2.40;;
19341;SDS011;9807;48.258;12.690;2023-05-07T05:15:43;3.30;;;3.00;;
19341;SDS011;9807;48.258;12.690;2023-05-07T05:18:08;3.20;;;2.60;;
19341;SDS011;9807;48.258;12.690;2023-05-07T05:20:34;4.57;;;2.67;;
19341;SDS011;9807;48.258;12.690;2023-05-07T05:23:00;2.87;;;2.57;;
19341;SDS011;9807;48.258;12.690;2023-05-07T05:25:26;5.50;;;2.90;;
19341;SDS011;9807;48.258;12.690;2023-05-07T05:27:52;3.90;;;3.20;;
19341;SDS011;9807;48.258;12.690;2023-05-07T05:30:18;7.17;;;4.50;;
19341;SDS011;9807;48.258;12.690;2023-05-07T05:32:46;4.30;;;3.90;;
19341;SDS011;9807;48.258;12.690;2023-05-07T05:35:12;5.70;;;4.70;;
19341;SDS011;9807;48.258;12.690;2023-05-07T05:37:38;4.67;;;4.10;;
19341;SDS011;9807;48.258;12.690;2023-05-07T05:40:04;6.77;;;4.20;;
19341;SDS011;9807;48.258;12.690;2023-05-07T05:42:30;8.37;;;5.50;;
19341;SDS011;9807;48.258;12.690;2023-05-07T05:44:56;11.73;;;6.10;;
19341;SDS011;9807;48.258;12.690;2023-05-07T05:47:22;5.43;;;4.30;;
19341;SDS011;9807;48.258;12.690;2023-05-07T05:49:51;6.13;;;3.83;;
19341;SDS011;9807;48.258;12.690;2023-05-07T05:52:16;3.33;;;3.03;;
19341;SDS011;9807;48.258;12.690;2023-05-07T05:54:42;9.10;;;5.63;;
19341;SDS011;9807;48.258;12.690;2023-05-07T05:57:08;4.90;;;4.40;;
19341;SDS011;9807;48.258;12.690;2023-05-07T05:59:34;7.00;;;4.43;;
19341;SDS011;9807;48.258;12.690;2023-05-07T06:02:00;4.57;;;3.57;;
19341;SDS011;9807;48.258;12.690;2023-05-07T06:04:26;7.23;;;4.80;;
19341;SDS011;9807;48.258;12.690;2023-05-07T06:06:52;4.80;;;4.23;;
19341;SDS011;9807;48.258;12.690;2023-05-07T06:09:18;6.87;;;5.80;;
19341;SDS011;9807;48.258;12.690;2023-05-07T06:11:45;4.90;;;4.40;;
19341;SDS011;9807;48.258;12.690;2023-05-07T06:14:11;6.00;;;4.97;;
19341;SDS011;9807;48.258;12.690;2023-05-07T06:16:36;5.33;;;4.70;;
19341;SDS011;9807;48.258;12.690;2023-05-07T06:19:03;6.90;;;6.20;;
19341;SDS011;9807;48.258;12.690;2023-05-07T06:21:29;5.70;;;4.93;;
19341;SDS011;9807;48.258;12.690;2023-05-07T06:23:55;6.20;;;5.00;;
19341;SDS011;9807;48.258;12.690;2023-05-07T06:26:21;7.70;;;4.30;;
19341;SDS011;9807;48.258;12.690;2023-05-07T06:28:50;5.07;;;4.57;;
19341;SDS011;9807;48.258;12.690;2023-05-07T06:31:16;6.97;;;5.70;;
19341;SDS011;9807;48.258;12.690;2023-05-07T06:33:45;6.57;;;5.57;;
19341;SDS011;9807;48.258;12.690;2023-05-07T06:36:11;5.67;;;4.83;;
19341;SDS011;9807;48.258;12.690;2023-05-07T06:38:37;5.87;;;4.83;;
19341;SDS011;9807;48.258;12.690;2023-05-07T06:41:03;6.60;;;5.57;;
19341;SDS011;9807;48.258;12.690;2023-05-07T06:43:30;6.07;;;4.47;;
19341;SDS011;9807;48.258;12.690;2023-05-07T06:45:56;5.10;;;4.53;;
19341;SDS011;9807;48.258;12.690;2023-05-07T06:48:21;6.93;;;5.60;;
19341;SDS011;9807;48.258;12.690;2023-05-07T06:50:47;6.20;;;5.50;;
19341;SDS011;9807;48.258;12.690;2023-05-07T06:53:13;6.43;;;4.90;;
19341;SDS011;9807;48.258;12.690;2023-05-07T06:55:39;5.90;;;5.30;;
19341;SDS011;9807;48.258;12.690;2023-05-07T06:58:04;5.77;;;4.47;;
19341;SDS011;9807;48.258;12.690;2023-05-07T07:00:31;8.33;;;6.47;;
19341;SDS011;9807;48.258;12.690;2023-05-07T07:02:56;5.43;;;3.80;;
19341;SDS011;9807;48.258;12.690;2023-05-07T07:05:22;12.00;;;4.97;;
19341;SDS011;9807;48.258;12.690;2023-05-07T07:07:48;6.27;;;5.57;;
19341;SDS011;9807;48.258;12.690;2023-05-07T07:10:19;6.67;;;5.70;;
19341;SDS011;9807;48.258;12.690;2023-05-07T07:12:45;7.00;;;4.57;;
19341;SDS011;9807;48.258;12.690;2023-05-07T07:15:11;8.13;;;4.20;;
19341;SDS011;9807;48.258;12.690;2023-05-07T07:17:38;6.43;;;5.03;;
19341;SDS011;9807;48.258;12.690;2023-05-07T07:20:06;5.27;;;4.73;;
19341;SDS011;9807;48.258;12.690;2023-05-07T07:22:33;5.87;;;4.17;;
19341;SDS011;9807;48.258;12.690;2023-05-07T07:24:59;6.53;;;3.30;;
19341;SDS011;9807;48.258;12.690;2023-05-07T07:27:25;4.80;;;3.37;;
19341;SDS011;9807;48.258;12.690;2023-05-07T07:29:50;5.77;;;4.20;;
19341;SDS011;9807;48.258;12.690;2023-05-07T07:32:16;5.43;;;4.63;;
19341;SDS011;9807;48.258;12.690;2023-05-07T07:34:42;6.03;;;4.73;;
19341;SDS011;9807;48.258;12.690;2023-05-07T07:37:08;4.30;;;3.90;;
19341;SDS011;9807;48.258;12.690;2023-05-07T07:39:33;8.10;;;4.77;;
19341;SDS011;9807;48.258;12.690;2023-05-07T07:42:00;8.43;;;6.17;;
19341;SDS011;9807;48.258;12.690;2023-05-07T07:44:27;8.70;;;6.17;;
19341;SDS011;9807;48.258;12.690;2023-05-07T07:46:53;4.67;;;3.73;;
19341;SDS011;9807;48.258;12.690;2023-05-07T07:49:21;8.73;;;5.43;;
19341;SDS011;9807;48.258;12.690;2023-05-07T07:51:47;5.57;;;4.43;;
19341;SDS011;9807;48.258;12.690;2023-05-07T07:54:13;4.87;;;4.27;;
19341;SDS011;9807;48.258;12.690;2023-05-07T07:56:39;5.30;;;4.40;;
19341;SDS011;9807;48.258;12.690;2023-05-07T07:59:05;6.87;;;4.43;;
19341;SDS011;9807;48.258;12.690;2023-05-07T08:01:33;5.63;;;4.57;;
19341;SDS011;9807;48.258;12.690;2023-05-07T08:04:02;5.93;;;4.97;;
19341;SDS011;9807;48.258;12.690;2023-05-07T08:06:28;5.27;;;4.50;;
19341;SDS011;9807;48.258;12.690;2023-05-07T08:08:54;7.90;;;3.90;;
19341;SDS011;9807;48.258;12.690;2023-05-07T08:11:23;7.37;;;4.90;;
19341;SDS011;9807;48.258;12.690;2023-05-07T08:13:50;6.97;;;4.20;;
19341;SDS011;9807;48.258;12.690;2023-05-07T08:16:16;5.43;;;4.20;;
19341;SDS011;9807;48.258;12.690;2023-05-07T08:18:48;6.37;;;4.10;;
19341;SDS011;9807;48.258;12.690;2023-05-07T08:21:13;5.33;;;4.00;;
19341;SDS011;9807;48.258;12.690;2023-05-07T08:23:42;5.37;;;4.10;;
19341;SDS011;9807;48.258;12.690;2023-05-07T08:26:07;5.07;;;3.60;;
19341;SDS011;9807;48.258;12.690;2023-05-07T08:28:33;6.07;;;3.50;;
19341;SDS011;9807;48.258;12.690;2023-05-07T08:30:59;4.53;;;3.70;;
19341;SDS011;9807;48.258;12.690;2023-05-07T08:33:26;4.70;;;3.30;;
19341;SDS011;9807;48.258;12.690;2023-05-07T08:35:52;5.57;;;3.47;;
19341;SDS011;9807;48.258;12.690;2023-05-07T08:38:18;3.97;;;3.43;;
19341;SDS011;9807;48.258;12.690;2023-05-07T08:40:43;4.93;;;3.80;;
19341;SDS011;9807;48.258;12.690;2023-05-07T08:43:11;4.37;;;3.30;;
19341;SDS011;9807;48.258;12.690;2023-05-07T08:45:37;4.77;;;3.60;;
19341;SDS011;9807;48.258;12.690;2023-05-07T08:48:07;9.43;;;5.73;;
19341;SDS011;9807;48.258;12.690;2023-05-07T08:50:35;5.77;;;3.77;;
19341;SDS011;9807;48.258;12.690;2023-05-07T08:53:04;4.60;;;4.10;;
19341;SDS011;9807;48.258;12.690;2023-05-07T08:55:30;6.10;;;3.90;;
19341;SDS011;9807;48.258;12.690;2023-05-07T08:57:56;5.40;;;3.27;;
19341;SDS011;9807;48.258;12.690;2023-05-07T09:00:22;6.77;;;4.10;;
19341;SDS011;9807;48.258;12.690;2023-05-07T09:02:48;8.63;;;3.87;;
19341;SDS011;9807;48.258;12.690;2023-05-07T09:05:14;5.23;;;3.93;;
19341;SDS011;9807;48.258;12.690;2023-05-07T09:07:40;6.03;;;4.17;;
19341;SDS011;9807;48.258;12.690;2023-05-07T09:10:06;5.13;;;3.70;;
19341;SDS011;9807;48.258;12.690;2023-05-07T09:12:32;6.50;;;4.53;;
19341;SDS011;9807;48.258;12.690;2023-05-07T09:15:00;7.63;;;4.40;;
19341;SDS011;9807;48.258;12.690;2023-05-07T09:17:26;3.73;;;3.33;;
19341;SDS011;9807;48.258;12.690;2023-05-07T09:19:52;4.87;;;3.50;;
19341;SDS011;9807;48.258;12.690;2023-05-07T09:22:18;5.20;;;4.00;;
19341;SDS011;9807;48.258;12.690;2023-05-07T09:24:50;4.13;;;3.30;;
19341;SDS011;9807;48.258;12.690;2023-05-07T09:27:17;3.90;;;3.50;;
19341;SDS011;9807;48.258;12.690;2023-05-07T09:29:46;5.33;;;4.40;;
19341;SDS011;9807;48.258;12.690;2023-05-07T09:32:11;5.27;;;3.20;;
19341;SDS011;9807;48.258;12.690;2023-05-07T09:34:39;4.07;;;3.63;;
19341;SDS011;9807;48.258;12.690;2023-05-07T09:37:06;4.20;;;3.80;;
19341;SDS011;9807;48.258;12.690;2023-05-07T09:39:42;4.03;;;3.53;;
19341;SDS011;9807;48.258;12.690;2023-05-07T09:42:10;5.87;;;3.70;;
19341;SDS011;9807;48.258;12.690;2023-05-07T09:44:44;5.57;;;4.60;;
19341;SDS011;9807;48.258;12.690;2023-05-07T09:47:12;5.70;;;3.90;;
19341;SDS011;9807;48.258;12.690;2023-05-07T09:49:43;4.83;;;4.23;;
19341;SDS011;9807;48.258;12.690;2023-05-07T09:52:13;4.40;;;3.70;;
19341;SDS011;9807;48.258;12.690;2023-05-07T09:54:39;4.53;;;3.40;;
19341;SDS011;9807;48.258;12.690;2023-05-07T09:57:09;4.63;;;3.27;;
19341;SDS011;9807;48.258;12.690;2023-05-07T09:59:36;3.97;;;3.63;;
19341;SDS011;9807;48.258;12.690;2023-05-07T10:02:03;3.97;;;3.20;;
19341;SDS011;9807;48.258;12.690;2023-05-07T10:04:30;3.77;;;3.13;;
19341;SDS011;9807;48.258;12.690;2023-05-07T10:06:57;2.73;;;2.50;;
19341;SDS011;9807;48.258;12.690;2023-05-07T10:09:25;3.30;;;3.00;;
19341;SDS011;9807;48.258;12.690;2023-05-07T10:11:51;3.60;;;2.97;;
19341;SDS011;9807;48.258;12.690;2023-05-07T10:14:19;4.70;;;2.60;;
19341;SDS011;9807;48.258;12.690;2023-05-07T10:16:46;2.90;;;2.60;;
19341;SDS011;9807;48.258;12.690;2023-05-07T10:19:13;4.97;;;2.53;;
19341;SDS011;9807;48.258;12.690;2023-05-07T10:21:42;3.60;;;2.50;;
19341;SDS011;9807;48.258;12.690;2023-05-07T10:24:16;3.83;;;2.63;;
19341;SDS011;9807;48.258;12.690;2023-05-07T10:27:10;2.90;;;2.70;;
19341;SDS011;9807;48.258;12.690;2023-05-07T10:29:50;4.27;;;3.10;;
19341;SDS011;9807;48.258;12.690;2023-05-07T10:32:51;4.83;;;3.00;;
19341;SDS011;9807;48.258;12.690;2023-05-07T10:35:21;3.83;;;2.40;;
19341;SDS011;9807;48.258;12.690;2023-05-07T10:37:49;2.90;;;2.20;;
19341;SDS011;9807;48.258;12.690;2023-05-07T10:40:15;2.53;;;2.33;;
19341;SDS011;9807;48.258;12.690;2023-05-07T10:45:25;2.50;;;2.30;;
19341;SDS011;9807;48.258;12.690;2023-05-07T10:50:40;4.23;;;2.70;;
19341;SDS011;9807;48.258;12.690;2023-05-07T10:55:41;2.47;;;2.10;;
19341;SDS011;9807;48.258;12.690;2023-05-07T11:01:01;2.97;;;2.10;;
19341;SDS011;9807;48.258;12.690;2023-05-07T11:03:27;4.57;;;2.30;;
19341;SDS011;9807;48.258;12.690;2023-05-07T11:06:10;4.40;;;2.13;;
19341;SDS011;9807;48.258;12.690;2023-05-07T11:11:18;2.73;;;2.10;;
19341;SDS011;9807;48.258;12.690;2023-05-07T11:13:47;4.67;;;2.53;;
19341;SDS011;9807;48.258;12.690;2023-05-07T11:16:24;3.10;;;2.07;;
19341;SDS011;9807;48.258;12.690;2023-05-07T11:18:54;2.47;;;1.90;;
19341;SDS011;9807;48.258;12.690;2023-05-07T11:24:09;4.43;;;2.70;;
19341;SDS011;9807;48.258;12.690;2023-05-07T11:29:19;5.43;;;2.30;;
19341;SDS011;9807;48.258;12.690;2023-05-07T11:31:53;3.27;;;2.07;;
19341;SDS011;9807;48.258;12.690;2023-05-07T11:34:23;4.37;;;2.77;;
19341;SDS011;9807;48.258;12.690;2023-05-07T11:36:50;2.00;;;1.80;;
19341;SDS011;9807;48.258;12.690;2023-05-07T11:39:23;2.70;;;2.27;;
19341;SDS011;9807;48.258;12.690;2023-05-07T11:41:52;3.50;;;2.20;;
19341;SDS011;9807;48.258;12.690;2023-05-07T11:44:18;3.83;;;2.53;;
19341;SDS011;9807;48.258;12.690;2023-05-07T11:46:44;3.83;;;2.50;;
19341;SDS011;9807;48.258;12.690;2023-05-07T11:49:10;3.70;;;2.80;;
19341;SDS011;9807;48.258;12.690;2023-05-07T11:51:36;2.50;;;2.30;;
19341;SDS011;9807;48.258;12.690;2023-05-07T11:54:05;2.30;;;2.10;;
19341;SDS011;9807;48.258;12.690;2023-05-07T11:56:36;2.83;;;2.00;;
19341;SDS011;9807;48.258;12.690;2023-05-07T11:59:02;2.40;;;2.00;;
19341;SDS011;9807;48.258;12.690;2023-05-07T12:01:28;3.27;;;1.90;;
19341;SDS011;9807;48.258;12.690;2023-05-07T12:03:54;2.37;;;2.00;;
19341;SDS011;9807;48.258;12.690;2023-05-07T12:06:19;4.73;;;2.20;;
19341;SDS011;9807;48.258;12.690;2023-05-07T12:08:45;2.37;;;1.97;;
19341;SDS011;9807;48.258;12.690;2023-05-07T12:11:24;3.83;;;2.20;;
19341;SDS011;9807;48.258;12.690;2023-05-07T12:13:50;2.20;;;2.00;;
19341;SDS011;9807;48.258;12.690;2023-05-07T12:16:16;10.17;;;3.27;;
19341;SDS011;9807;48.258;12.690;2023-05-07T12:18:43;3.10;;;2.00;;
19341;SDS011;9807;48.258;12.690;2023-05-07T12:21:10;2.10;;;1.90;;
19341;SDS011;9807;48.258;12.690;2023-05-07T12:23:36;4.10;;;1.87;;
19341;SDS011;9807;48.258;12.690;2023-05-07T12:26:03;1.83;;;1.73;;
19341;SDS011;9807;48.258;12.690;2023-05-07T12:28:29;2.43;;;1.87;;
19341;SDS011;9807;48.258;12.690;2023-05-07T12:30:56;3.70;;;1.93;;
19341;SDS011;9807;48.258;12.690;2023-05-07T12:33:26;4.50;;;2.00;;
19341;SDS011;9807;48.258;12.690;2023-05-07T12:35:53;2.53;;;1.93;;
19341;SDS011;9807;48.258;12.690;2023-05-07T12:38:20;2.20;;;1.90;;
19341;SDS011;9807;48.258;12.690;2023-05-07T12:40:47;2.67;;;2.00;;
19341;SDS011;9807;48.258;12.690;2023-05-07T12:45:48;3.10;;;2.10;;
19341;SDS011;9807;48.258;12.690;2023-05-07T12:48:15;3.93;;;2.10;;
19341;SDS011;9807;48.258;12.690;2023-05-07T12:50:41;1.77;;;1.67;;
19341;SDS011;9807;48.258;12.690;2023-05-07T12:53:08;2.97;;;2.20;;
19341;SDS011;9807;48.258;12.690;2023-05-07T12:55:46;4.50;;;1.90;;
19341;SDS011;9807;48.258;12.690;2023-05-07T12:58:16;2.20;;;1.80;;
19341;SDS011;9807;48.258;12.690;2023-05-07T13:00:43;3.03;;;1.80;;
19341;SDS011;9807;48.258;12.690;2023-05-07T13:03:10;2.80;;;1.77;;
19341;SDS011;9807;48.258;12.690;2023-05-07T13:05:36;2.60;;;1.50;;
19341;SDS011;9807;48.258;12.690;2023-05-07T13:08:02;3.43;;;1.60;;
19341;SDS011;9807;48.258;12.690;2023-05-07T13:10:28;5.10;;;1.50;;
19341;SDS011;9807;48.258;12.690;2023-05-07T13:12:54;3.57;;;1.97;;
19341;SDS011;9807;48.258;12.690;2023-05-07T13:15:20;2.47;;;1.93;;
19341;SDS011;9807;48.258;12.690;2023-05-07T13:17:47;1.70;;;1.60;;
19341;SDS011;9807;48.258;12.690;2023-05-07T13:20:13;1.70;;;1.60;;
19341;SDS011;9807;48.258;12.690;2023-05-07T13:22:43;4.33;;;2.93;;
19341;SDS011;9807;48.258;12.690;2023-05-07T13:25:09;3.77;;;2.10;;
19341;SDS011;9807;48.258;12.690;2023-05-07T13:27:34;2.50;;;1.93;;
19341;SDS011;9807;48.258;12.690;2023-05-07T13:30:04;3.07;;;1.77;;
19341;SDS011;9807;48.258;12.690;2023-05-07T13:32:30;1.70;;;1.60;;
19341;SDS011;9807;48.258;12.690;2023-05-07T13:34:56;3.73;;;2.50;;
19341;SDS011;9807;48.258;12.690;2023-05-07T13:37:22;2.93;;;1.80;;
19341;SDS011;9807;48.258;12.690;2023-05-07T13:39:48;3.87;;;2.10;;
19341;SDS011;9807;48.258;12.690;2023-05-07T13:42:14;3.30;;;1.90;;
19341;SDS011;9807;48.258;12.690;2023-05-07T13:44:39;1.90;;;1.80;;
19341;SDS011;9807;48.258;12.690;2023-05-07T13:47:05;1.90;;;1.70;;
19341;SDS011;9807;48.258;12.690;2023-05-07T13:49:31;4.20;;;1.50;;
19341;SDS011;9807;48.258;12.690;2023-05-07T13:51:57;2.27;;;1.87;;
19341;SDS011;9807;48.258;12.690;2023-05-07T13:54:22;2.10;;;1.80;;
19341;SDS011;9807;48.258;12.690;2023-05-07T13:56:48;2.27;;;1.80;;
19341;SDS011;9807;48.258;12.690;2023-05-07T13:59:14;2.90;;;1.50;;
19341;SDS011;9807;48.258;12.690;2023-05-07T14:01:40;3.63;;;1.70;;
19341;SDS011;9807;48.258;12.690;2023-05-07T14:04:06;2.77;;;1.70;;
19341;SDS011;9807;48.258;12.690;2023-05-07T14:06:32;1.97;;;1.40;;
19341;SDS011;9807;48.258;12.690;2023-05-07T14:08:58;2.30;;;1.70;;
19341;SDS011;9807;48.258;12.690;2023-05-07T14:11:25;2.77;;;2.00;;
19341;SDS011;9807;48.258;12.690;2023-05-07T14:13:51;4.73;;;2.07;;
19341;SDS011;9807;48.258;12.690;2023-05-07T14:16:16;2.20;;;1.60;;
19341;SDS011;9807;48.258;12.690;2023-05-07T14:18:42;2.63;;;2.00;;
19341;SDS011;9807;48.258;12.690;2023-05-07T14:21:08;3.00;;;1.90;;
19341;SDS011;9807;48.258;12.690;2023-05-07T14:23:36;1.60;;;1.50;;
19341;SDS011;9807;48.258;12.690;2023-05-07T14:26:02;3.97;;;1.60;;
19341;SDS011;9807;48.258;12.690;2023-05-07T14:28:28;1.93;;;1.60;;
19341;SDS011;9807;48.258;12.690;2023-05-07T14:30:54;3.20;;;1.60;;
19341;SDS011;9807;48.258;12.690;2023-05-07T14:33:19;1.87;;;1.77;;
19341;SDS011;9807;48.258;12.690;2023-05-07T14:35:45;1.83;;;1.57;;
19341;SDS011;9807;48.258;12.690;2023-05-07T14:38:13;2.00;;;1.80;;
19341;SDS011;9807;48.258;12.690;2023-05-07T14:40:40;2.70;;;1.53;;
19341;SDS011;9807;48.258;12.690;2023-05-07T14:43:06;1.70;;;1.60;;
19341;SDS011;9807;48.258;12.690;2023-05-07T14:45:31;3.13;;;1.50;;
19341;SDS011;9807;48.258;12.690;2023-05-07T14:47:57;1.57;;;1.30;;
19341;SDS011;9807;48.258;12.690;2023-05-07T14:50:24;1.70;;;1.60;;
19341;SDS011;9807;48.258;12.690;2023-05-07T14:52:50;1.50;;;1.40;;
19341;SDS011;9807;48.258;12.690;2023-05-07T14:55:16;1.73;;;1.50;;
19341;SDS011;9807;48.258;12.690;2023-05-07T14:57:42;1.63;;;1.40;;
19341;SDS011;9807;48.258;12.690;2023-05-07T15:00:08;1.90;;;1.33;;
19341;SDS011;9807;48.258;12.690;2023-05-07T15:02:36;5.23;;;1.57;;
19341;SDS011;9807;48.258;12.690;2023-05-07T15:05:02;1.80;;;1.40;;
19341;SDS011;9807;48.258;12.690;2023-05-07T15:07:27;2.00;;;1.60;;